createdAt,value
2023-05-22T00:01:06.658Z,100.00
2023-05-22T00:03:33.729Z,100.00
2023-05-22T00:06:00.356Z,100.00
2023-05-22T00:08:29.543Z,100.00
2023-05-22T00:10:56.808Z,100.00
2023-05-22T00:13:23.386Z,100.00
2023-05-22T00:15:50.106Z,100.00
2023-05-22T00:18:16.820Z,100.00
2023-05-22T00:20:46.352Z,100.00
2023-05-22T00:23:15.597Z,100.00
2023-05-22T00:25:42.401Z,100.00
2023-05-22T00:28:08.963Z,100.00
2023-05-22T00:30:37.158Z,100.00
2023-05-22T00:33:03.977Z,100.00
2023-05-22T00:35:31.013Z,100.00
2023-05-22T00:37:57.633Z,100.00
2023-05-22T00:40:24.204Z,100.00
2023-05-22T00:42:50.679Z,100.00
2023-05-22T00:45:17.363Z,100.00
2023-05-22T00:47:43.971Z,100.00
2023-05-22T00:50:11.751Z,100.00
2023-05-22T00:52:41.232Z,100.00
2023-05-22T00:55:09.055Z,100.00
2023-05-22T00:57:38.233Z,100.00
2023-05-22T01:00:06.252Z,100.00
2023-05-22T01:02:33.212Z,100.00
2023-05-22T01:05:00.017Z,100.00
2023-05-22T01:07:26.546Z,100.00
2023-05-22T01:09:53.038Z,100.00
2023-05-22T01:12:43.231Z,100.00
2023-05-22T01:15:41.227Z,100.00
2023-05-22T01:18:19.684Z,100.00
2023-05-22T01:21:06.323Z,100.00
2023-05-22T01:24:00.880Z,100.00
2023-05-22T01:26:36.222Z,100.00
2023-05-22T01:29:14.377Z,100.00
2023-05-22T01:31:43.015Z,100.00
2023-05-22T01:34:11.676Z,100.00
2023-05-22T01:36:39.066Z,100.00
2023-05-22T01:39:06.764Z,100.00
2023-05-22T01:41:34.727Z,100.00
2023-05-22T01:44:02.258Z,100.00
2023-05-22T01:46:30.223Z,100.00
2023-05-22T01:48:57.524Z,100.00
2023-05-22T01:51:46.848Z,100.00
2023-05-22T01:54:44.028Z,100.00
2023-05-22T01:57:22.135Z,100.00
2023-05-22T01:59:59.551Z,100.00
2023-05-22T02:02:27.870Z,100.00
2023-05-22T02:05:00.681Z,100.00
2023-05-22T02:07:28.825Z,100.00
2023-05-22T02:09:56.831Z,100.00
2023-05-22T02:12:24.529Z,100.00
2023-05-22T02:14:52.245Z,100.00
2023-05-22T02:17:18.918Z,100.00
2023-05-22T02:19:45.521Z,100.00
2023-05-22T02:22:15.197Z,100.00
2023-05-22T02:24:50.941Z,100.00
2023-05-22T02:27:17.474Z,100.00
2023-05-22T02:29:43.994Z,100.00
2023-05-22T02:32:10.730Z,100.00
2023-05-22T02:34:37.982Z,100.00
2023-05-22T02:37:04.841Z,100.00
2023-05-22T02:39:31.359Z,100.00
2023-05-22T02:41:57.870Z,100.00
2023-05-22T02:44:24.366Z,100.00
2023-05-22T02:46:50.938Z,100.00
2023-05-22T02:49:17.467Z,100.00
2023-05-22T02:51:47.520Z,100.00
2023-05-22T02:54:15.810Z,100.00
2023-05-22T02:56:43.267Z,100.00
2023-05-22T02:59:10.071Z,100.00
2023-05-22T03:01:36.780Z,100.00
2023-05-22T03:04:03.381Z,100.00
2023-05-22T03:06:30.542Z,100.00
2023-05-22T03:08:57.067Z,100.00
2023-05-22T03:11:23.630Z,100.00
2023-05-22T03:13:50.132Z,100.00
2023-05-22T03:16:16.768Z,100.00
2023-05-22T03:18:43.299Z,100.00
2023-05-22T03:21:10.008Z,100.00
2023-05-22T03:23:36.501Z,100.00
2023-05-22T03:26:03.060Z,100.00
2023-05-22T03:28:29.578Z,100.00
2023-05-22T03:30:56.099Z,100.00
2023-05-22T03:33:22.709Z,100.00
2023-05-22T03:35:50.102Z,100.00
2023-05-22T03:38:16.603Z,100.00
2023-05-22T03:40:43.067Z,100.00
2023-05-22T03:43:09.547Z,100.00
2023-05-22T03:45:36.130Z,100.00
2023-05-22T03:48:02.802Z,100.00
2023-05-22T03:50:29.354Z,100.00
2023-05-22T03:52:55.882Z,100.00
2023-05-22T03:55:22.364Z,100.00
2023-05-22T03:57:48.828Z,100.00
2023-05-22T04:00:17.098Z,100.00
2023-05-22T04:02:44.993Z,100.00
2023-05-22T04:05:12.038Z,100.00
2023-05-22T04:07:38.646Z,100.00
2023-05-22T04:10:06.383Z,100.00
2023-05-22T04:12:33.007Z,100.00
2023-05-22T04:14:59.659Z,100.00
2023-05-22T04:17:32.192Z,100.00
2023-05-22T04:19:59.756Z,100.00
2023-05-22T04:22:30.898Z,100.00
2023-05-22T04:24:57.619Z,100.00
2023-05-22T04:27:24.867Z,100.00
2023-05-22T04:29:51.369Z,100.00
2023-05-22T04:32:21.671Z,100.00
2023-05-22T04:34:51.048Z,100.00
2023-05-22T04:37:20.694Z,100.00
2023-05-22T04:39:47.404Z,100.00
2023-05-22T04:42:14.462Z,100.00
2023-05-22T04:44:41.898Z,100.00
2023-05-22T04:47:14.314Z,100.00
2023-05-22T04:49:42.445Z,100.00
2023-05-22T04:52:11.571Z,100.00
2023-05-22T04:54:43.309Z,100.00
2023-05-22T04:57:09.996Z,100.00
2023-05-22T04:59:40.176Z,100.00
2023-05-22T05:02:07.124Z,100.00
2023-05-22T05:04:33.964Z,100.00
2023-05-22T05:07:00.561Z,100.00
2023-05-22T05:09:27.070Z,100.00
2023-05-22T05:11:55.003Z,100.00
2023-05-22T05:14:21.578Z,100.00
2023-05-22T05:16:48.143Z,100.00
2023-05-22T05:19:15.573Z,100.00
2023-05-22T05:21:42.176Z,100.00
2023-05-22T05:24:08.785Z,100.00
2023-05-22T05:26:35.340Z,100.00
2023-05-22T05:29:01.859Z,100.00
2023-05-22T05:31:28.718Z,100.00
2023-05-22T05:33:58.152Z,100.00
2023-05-22T05:36:25.186Z,100.00
2023-05-22T05:38:51.759Z,100.00
2023-05-22T05:41:19.134Z,100.00
2023-05-22T05:43:45.826Z,100.00
2023-05-22T05:46:13.189Z,100.00
2023-05-22T05:48:39.844Z,100.00
2023-05-22T05:51:06.715Z,100.00
2023-05-22T05:53:33.250Z,100.00
2023-05-22T05:55:59.841Z,100.00
2023-05-22T05:58:26.328Z,100.00
2023-05-22T06:00:52.902Z,100.00
2023-05-22T06:03:19.523Z,100.00
2023-05-22T06:05:46.231Z,100.00
2023-05-22T06:08:13.614Z,100.00
2023-05-22T06:10:40.422Z,100.00
2023-05-22T06:13:07.264Z,100.00
2023-05-22T06:15:34.319Z,100.00
2023-05-22T06:18:02.463Z,100.00
2023-05-22T06:20:29.118Z,100.00
2023-05-22T06:22:56.048Z,100.00
2023-05-22T06:25:23.777Z,100.00
2023-05-22T06:27:50.292Z,100.00
2023-05-22T06:30:31.993Z,100.00
2023-05-22T06:33:06.140Z,100.00
2023-05-22T06:35:32.696Z,100.00
2023-05-22T06:37:59.323Z,100.00
2023-05-22T06:40:25.948Z,100.00
2023-05-22T06:42:52.997Z,100.00
2023-05-22T06:45:20.041Z,100.00
2023-05-22T06:47:46.852Z,100.00
2023-05-22T06:50:13.428Z,100.00
2023-05-22T06:52:39.926Z,100.00
2023-05-22T06:55:07.379Z,100.00
2023-05-22T06:57:34.665Z,100.00
2023-05-22T07:00:01.293Z,100.00
2023-05-22T07:02:27.867Z,100.00
2023-05-22T07:04:54.490Z,100.00
2023-05-22T07:07:21.233Z,100.00
2023-05-22T07:09:47.901Z,100.00
2023-05-22T07:12:14.586Z,100.00
2023-05-22T07:14:41.133Z,100.00
2023-05-22T07:17:08.001Z,100.00
2023-05-22T07:19:35.756Z,100.00
2023-05-22T07:22:02.393Z,100.00
2023-05-22T07:24:29.053Z,100.00
2023-05-22T07:26:55.655Z,100.00
2023-05-22T07:29:23.183Z,100.00
2023-05-22T07:31:50.149Z,100.00
2023-05-22T07:34:16.804Z,100.00
2023-05-22T07:36:43.393Z,100.00
2023-05-22T07:39:09.905Z,100.00
2023-05-22T07:41:36.717Z,100.00
2023-05-22T07:44:03.403Z,100.00
2023-05-22T07:46:29.996Z,100.00
2023-05-22T07:48:56.827Z,100.00
2023-05-22T07:51:23.336Z,100.00
2023-05-22T07:53:49.852Z,100.00
2023-05-22T07:56:17.612Z,100.00
2023-05-22T07:58:44.358Z,100.00
2023-05-22T08:01:11.145Z,100.00
2023-05-22T08:03:37.907Z,100.00
2023-05-22T08:06:04.824Z,100.00
2023-05-22T08:08:32.183Z,100.00
2023-05-22T08:13:28.195Z,99.10
2023-05-22T08:16:00.149Z,98.22
2023-05-22T08:18:29.168Z,99.59
2023-05-22T08:20:56.257Z,97.72
2023-05-22T08:23:22.994Z,98.05
2023-05-22T08:25:50.290Z,97.66
2023-05-22T08:28:16.856Z,95.90
2023-05-22T08:30:43.462Z,95.41
2023-05-22T08:33:10.074Z,96.03
2023-05-22T08:35:36.760Z,95.44
2023-05-22T08:38:03.318Z,94.93
2023-05-22T08:40:36.771Z,92.99
2023-05-22T08:43:06.156Z,91.71
2023-05-22T08:45:36.974Z,94.17
2023-05-22T08:48:05.912Z,95.37
2023-05-22T08:50:34.702Z,93.71
2023-05-22T08:53:04.770Z,93.28
2023-05-22T08:55:31.402Z,92.94
2023-05-22T08:57:59.561Z,92.53
2023-05-22T09:00:26.184Z,92.67
2023-05-22T09:02:53.479Z,92.71
2023-05-22T09:05:20.197Z,91.84
2023-05-22T09:07:48.817Z,90.04
2023-05-22T09:10:15.390Z,89.10
2023-05-22T09:13:00.822Z,88.34
2023-05-22T09:15:30.554Z,88.71
2023-05-22T09:17:57.189Z,86.02
2023-05-22T09:20:23.827Z,86.14
2023-05-22T09:22:50.380Z,85.38
2023-05-22T09:25:21.337Z,84.90
2023-05-22T09:27:48.833Z,85.14
2023-05-22T09:30:19.075Z,86.20
2023-05-22T09:32:48.375Z,85.26
2023-05-22T09:35:15.241Z,83.84
2023-05-22T09:37:42.059Z,84.43
2023-05-22T09:40:12.061Z,83.65
2023-05-22T09:42:38.590Z,79.91
2023-05-22T09:45:07.159Z,79.71
2023-05-22T09:47:34.889Z,80.90
2023-05-22T09:50:04.559Z,79.85
2023-05-22T09:52:35.753Z,80.32
2023-05-22T09:55:04.780Z,81.18
2023-05-22T09:57:42.856Z,79.16
2023-05-22T10:00:13.331Z,82.30
2023-05-22T10:02:44.562Z,79.80
2023-05-22T10:05:12.145Z,77.52
2023-05-22T10:08:04.881Z,77.87
2023-05-22T10:10:33.065Z,74.47
2023-05-22T10:13:06.501Z,76.47
2023-05-22T10:15:33.139Z,73.33
2023-05-22T10:18:00.717Z,74.88
2023-05-22T10:20:29.714Z,71.44
2023-05-22T10:22:56.941Z,71.10
2023-05-22T10:25:23.636Z,73.15
2023-05-22T10:27:53.619Z,73.29
2023-05-22T10:30:40.862Z,71.52
2023-05-22T10:33:19.040Z,75.05
2023-05-22T10:36:08.675Z,75.92
2023-05-22T10:39:04.989Z,75.47
2023-05-22T10:41:31.938Z,77.91
2023-05-22T10:43:58.536Z,76.85
2023-05-22T10:46:25.552Z,77.98
2023-05-22T10:48:55.082Z,76.13
2023-05-22T10:51:23.116Z,79.07
2023-05-22T10:53:57.936Z,76.29
2023-05-22T10:56:32.146Z,76.35
2023-05-22T10:59:05.321Z,76.60
2023-05-22T11:01:37.487Z,77.75
2023-05-22T11:04:04.113Z,78.58
2023-05-22T11:06:34.052Z,79.29
2023-05-22T11:09:16.309Z,75.58
2023-05-22T11:11:42.877Z,75.47
2023-05-22T11:14:11.887Z,75.12
2023-05-22T11:16:39.788Z,74.30
2023-05-22T11:19:22.145Z,75.46
2023-05-22T11:21:49.656Z,76.66
2023-05-22T11:24:18.091Z,77.72
2023-05-22T11:26:52.484Z,79.43
2023-05-22T11:29:19.029Z,77.40
2023-05-22T11:31:46.348Z,78.31
2023-05-22T11:34:13.026Z,78.99
2023-05-22T11:36:40.316Z,80.03
2023-05-22T11:39:07.261Z,79.68
2023-05-22T11:41:34.346Z,81.57
2023-05-22T11:44:01.603Z,79.66
2023-05-22T11:46:30.334Z,78.50
2023-05-22T11:48:57.077Z,76.47
2023-05-22T11:51:23.740Z,73.83
2023-05-22T11:53:50.387Z,74.18
2023-05-22T11:56:21.568Z,73.21
2023-05-22T11:58:51.882Z,74.44
2023-05-22T12:01:18.469Z,73.34
2023-05-22T12:03:45.108Z,74.67
2023-05-22T12:06:11.991Z,73.79
2023-05-22T12:08:39.292Z,73.14
2023-05-22T12:11:07.122Z,71.32
2023-05-22T12:13:33.635Z,71.30
2023-05-22T12:16:00.980Z,73.24
2023-05-22T12:18:35.374Z,73.84
2023-05-22T12:21:01.948Z,71.88
2023-05-22T12:23:30.058Z,69.51
2023-05-22T12:26:09.013Z,70.81
2023-05-22T12:28:35.640Z,67.21
2023-05-22T12:31:02.139Z,64.09
2023-05-22T12:33:29.936Z,66.49
2023-05-22T12:35:58.596Z,67.43
2023-05-22T12:38:31.701Z,67.64
2023-05-22T12:41:00.199Z,67.20
2023-05-22T12:43:27.246Z,63.65
2023-05-22T12:45:54.100Z,64.13
2023-05-22T12:48:20.690Z,64.03
2023-05-22T12:50:47.341Z,63.80
2023-05-22T12:53:14.000Z,65.46
2023-05-22T12:55:40.980Z,63.86
2023-05-22T12:58:07.648Z,62.60
2023-05-22T13:00:34.744Z,63.36
2023-05-22T13:03:01.520Z,62.73
2023-05-22T13:05:28.181Z,63.21
2023-05-22T13:07:54.683Z,65.69
2023-05-22T13:10:21.262Z,66.48
2023-05-22T13:12:51.027Z,66.64
2023-05-22T13:15:20.713Z,68.20
2023-05-22T13:17:47.296Z,69.11
2023-05-22T13:20:13.972Z,67.66
2023-05-22T13:22:44.640Z,67.94
2023-05-22T13:25:13.297Z,69.23
2023-05-22T13:27:39.843Z,68.01
2023-05-22T13:30:06.973Z,68.05
2023-05-22T13:32:34.173Z,68.29
2023-05-22T13:35:00.797Z,68.53
2023-05-22T13:37:27.426Z,69.65
2023-05-22T13:39:54.062Z,69.16
2023-05-22T13:42:20.771Z,68.61
2023-05-22T13:44:47.271Z,68.97
2023-05-22T13:47:13.982Z,69.28
2023-05-22T13:49:43.827Z,68.51
2023-05-22T13:52:10.458Z,67.05
2023-05-22T13:54:37.058Z,67.22
2023-05-22T13:57:03.721Z,67.91
2023-05-22T13:59:30.330Z,65.22
2023-05-22T14:01:56.951Z,64.96
2023-05-22T14:04:23.762Z,64.92
2023-05-22T14:06:50.707Z,64.28
2023-05-22T14:09:17.868Z,65.09
2023-05-22T14:11:44.569Z,64.05
2023-05-22T14:14:11.420Z,65.58
2023-05-22T14:16:38.366Z,64.85
2023-05-22T14:19:05.090Z,65.04
2023-05-22T14:21:31.649Z,63.86
2023-05-22T14:23:58.226Z,65.72
2023-05-22T14:26:24.792Z,64.12
2023-05-22T14:28:51.448Z,64.64
2023-05-22T14:31:17.968Z,64.56
2023-05-22T14:33:44.474Z,64.59
2023-05-22T14:36:11.027Z,64.59
2023-05-22T14:38:37.950Z,64.75
2023-05-22T14:41:04.500Z,64.54
2023-05-22T14:43:31.218Z,64.39
2023-05-22T14:45:59.081Z,63.46
2023-05-22T14:48:26.467Z,64.43
2023-05-22T14:50:53.784Z,64.89
2023-05-22T14:53:20.808Z,65.69
2023-05-22T14:55:47.596Z,66.05
2023-05-22T14:58:14.695Z,64.81
2023-05-22T15:00:42.740Z,66.65
2023-05-22T15:03:09.414Z,66.78
2023-05-22T15:05:36.060Z,66.00
2023-05-22T15:08:02.678Z,66.33
2023-05-22T15:10:29.222Z,66.15
2023-05-22T15:12:55.776Z,67.15
2023-05-22T15:15:22.464Z,66.05
2023-05-22T15:17:49.133Z,64.81
2023-05-22T15:20:15.785Z,63.55
2023-05-22T15:22:42.344Z,63.32
2023-05-22T15:25:15.282Z,62.61
2023-05-22T15:27:42.734Z,61.60
2023-05-22T15:30:10.006Z,63.18
2023-05-22T15:32:37.606Z,62.15
2023-05-22T15:37:33.723Z,61.18
2023-05-22T15:40:01.828Z,59.06
2023-05-22T15:42:28.822Z,60.56
2023-05-22T15:44:55.528Z,61.40
2023-05-22T15:47:22.251Z,60.66
2023-05-22T15:49:48.783Z,61.89
2023-05-22T15:52:15.641Z,60.32
2023-05-22T15:54:42.230Z,60.52
2023-05-22T15:57:08.740Z,59.57
2023-05-22T15:59:35.262Z,59.78
2023-05-22T16:02:01.869Z,59.61
2023-05-22T16:04:28.407Z,60.31
2023-05-22T16:06:55.005Z,59.97
2023-05-22T16:09:21.546Z,60.38
2023-05-22T16:11:48.130Z,60.67
2023-05-22T16:14:14.678Z,60.44
2023-05-22T16:16:41.343Z,61.28
2023-05-22T16:19:08.079Z,61.00
2023-05-22T16:21:34.616Z,59.86
2023-05-22T16:24:01.216Z,59.80
2023-05-22T16:26:27.740Z,57.63
2023-05-22T16:28:54.320Z,57.57
2023-05-22T16:31:20.910Z,57.57
2023-05-22T16:33:47.548Z,55.54
2023-05-22T16:36:14.108Z,54.42
2023-05-22T16:38:40.638Z,52.18
2023-05-22T16:41:07.136Z,51.62
2023-05-22T16:43:33.651Z,52.87
2023-05-22T16:46:00.188Z,54.89
2023-05-22T16:48:26.828Z,55.41
2023-05-22T16:50:53.544Z,56.01
2023-05-22T16:53:20.092Z,55.85
2023-05-22T16:55:46.691Z,57.38
2023-05-22T16:58:14.008Z,56.99
2023-05-22T17:00:41.284Z,58.45
2023-05-22T17:03:08.497Z,58.92
2023-05-22T17:05:36.532Z,59.50
2023-05-22T17:08:03.320Z,60.01
2023-05-22T17:10:29.875Z,60.85
2023-05-22T17:12:56.577Z,62.02
2023-05-22T17:15:23.498Z,61.73
2023-05-22T17:17:50.687Z,61.31
2023-05-22T17:20:17.413Z,61.94
2023-05-22T17:22:43.978Z,62.20
2023-05-22T17:25:10.835Z,63.07
2023-05-22T17:27:37.327Z,62.89
2023-05-22T17:30:05.582Z,64.10
2023-05-22T17:32:32.375Z,63.96
2023-05-22T17:34:59.348Z,63.44
2023-05-22T17:37:25.888Z,64.25
2023-05-22T17:39:52.370Z,65.09
2023-05-22T17:42:18.962Z,66.25
2023-05-22T17:44:45.795Z,66.74
2023-05-22T17:47:13.406Z,67.42
2023-05-22T17:49:40.173Z,67.47
2023-05-22T17:52:08.571Z,67.97
2023-05-22T17:54:35.901Z,68.51
2023-05-22T17:57:04.102Z,68.82
2023-05-22T17:59:31.924Z,68.85
2023-05-22T18:01:58.550Z,69.44
2023-05-22T18:04:25.286Z,70.80
2023-05-22T18:06:52.209Z,70.26
2023-05-22T18:09:18.790Z,70.77
2023-05-22T18:11:45.346Z,71.72
2023-05-22T18:14:12.040Z,71.24
2023-05-22T18:16:38.646Z,71.04
2023-05-22T18:19:05.236Z,71.74
2023-05-22T18:21:32.254Z,71.73
2023-05-22T18:23:59.028Z,72.04
2023-05-22T18:26:26.754Z,72.13
2023-05-22T18:28:53.334Z,71.87
2023-05-22T18:31:20.128Z,72.60
2023-05-22T18:33:46.800Z,72.82
2023-05-22T18:36:13.351Z,73.04
2023-05-22T18:38:39.995Z,72.83
2023-05-22T18:41:06.764Z,73.20
2023-05-22T18:43:33.754Z,74.23
2023-05-22T18:46:00.317Z,74.69
2023-05-22T18:48:28.154Z,74.72
2023-05-22T18:50:57.292Z,75.02
2023-05-22T18:53:25.355Z,75.95
2023-05-22T18:55:53.725Z,76.23
2023-05-22T18:58:20.576Z,76.33
2023-05-22T19:00:47.232Z,76.50
2023-05-22T19:03:13.982Z,76.21
2023-05-22T19:05:40.728Z,76.69
2023-05-22T19:08:07.314Z,76.79
2023-05-22T19:10:34.032Z,76.81
2023-05-22T19:13:00.582Z,77.28
2023-05-22T19:15:27.173Z,77.96
2023-05-22T19:17:53.693Z,77.79
2023-05-22T19:20:20.475Z,78.11
2023-05-22T19:22:47.077Z,78.27
2023-05-22T19:25:13.723Z,79.11
2023-05-22T19:27:40.401Z,79.23
2023-05-22T19:30:07.431Z,79.64
2023-05-22T19:32:34.102Z,79.77
2023-05-22T19:35:00.621Z,79.96
2023-05-22T19:37:27.180Z,80.42
2023-05-22T19:39:54.292Z,81.03
2023-05-22T19:42:20.836Z,81.63
2023-05-22T19:44:47.419Z,81.96
2023-05-22T19:47:13.983Z,82.82
2023-05-22T19:49:40.505Z,82.68
2023-05-22T19:52:07.065Z,82.86
2023-05-22T19:54:35.763Z,83.10
2023-05-22T19:57:02.974Z,83.81
2023-05-22T19:59:29.511Z,84.28
2023-05-22T20:01:56.187Z,84.43
2023-05-22T20:04:23.198Z,85.11
2023-05-22T20:06:49.785Z,85.87
2023-05-22T20:09:16.740Z,85.86
2023-05-22T20:11:43.297Z,85.98
2023-05-22T20:14:09.864Z,86.23
2023-05-22T20:16:36.512Z,86.54
2023-05-22T20:19:04.103Z,87.45
2023-05-22T20:21:31.054Z,87.54
2023-05-22T20:23:57.766Z,87.32
2023-05-22T20:26:24.323Z,87.99
2023-05-22T20:28:50.928Z,88.28
2023-05-22T20:31:17.872Z,88.67
2023-05-22T20:33:44.460Z,88.84
2023-05-22T20:36:12.012Z,88.20
2023-05-22T20:38:38.518Z,88.25
2023-05-22T20:41:08.663Z,88.58
2023-05-22T20:43:36.230Z,88.97
2023-05-22T20:46:03.115Z,89.22
2023-05-22T20:48:29.717Z,88.61
2023-05-22T20:50:56.463Z,88.82
2023-05-22T20:53:24.458Z,89.91
2023-05-22T20:55:53.180Z,89.43
2023-05-22T20:58:19.982Z,89.53
2023-05-22T21:00:49.333Z,89.56
2023-05-22T21:03:16.980Z,89.96
2023-05-22T21:05:43.495Z,89.80
2023-05-22T21:08:10.054Z,89.67
2023-05-22T21:10:36.545Z,90.37
2023-05-22T21:13:03.075Z,90.35
2023-05-22T21:15:29.542Z,89.09
2023-05-22T21:17:56.097Z,87.72
2023-05-22T21:20:22.651Z,87.16
2023-05-22T21:22:49.210Z,87.41
2023-05-22T21:25:15.787Z,87.46
2023-05-22T21:27:42.357Z,86.79
2023-05-22T21:30:11.970Z,87.07
2023-05-22T21:32:38.680Z,87.30
2023-05-22T21:35:06.011Z,87.54
2023-05-22T21:37:32.559Z,87.33
2023-05-22T21:39:59.087Z,87.74
2023-05-22T21:42:26.209Z,87.88
2023-05-22T21:44:52.901Z,88.29
2023-05-22T21:47:19.518Z,88.72
2023-05-22T21:49:46.031Z,89.00
2023-05-22T21:52:12.811Z,89.27
2023-05-22T21:54:39.601Z,89.39
2023-05-22T21:57:06.369Z,89.66
2023-05-22T21:59:32.940Z,89.25
2023-05-22T22:01:59.573Z,89.67
2023-05-22T22:04:26.240Z,89.86
2023-05-22T22:06:54.033Z,89.52
2023-05-22T22:09:20.527Z,89.71
2023-05-22T22:11:48.620Z,90.27
2023-05-22T22:14:15.188Z,90.08
2023-05-22T22:16:44.398Z,90.44
2023-05-22T22:19:11.522Z,91.10
2023-05-22T22:21:38.402Z,90.93
2023-05-22T22:24:05.069Z,90.83
2023-05-22T22:26:32.316Z,91.08
2023-05-22T22:28:58.947Z,91.28
2023-05-22T22:31:26.282Z,91.29
2023-05-22T22:33:52.945Z,91.81
2023-05-22T22:36:19.452Z,91.43
2023-05-22T22:38:46.120Z,91.70
2023-05-22T22:41:12.666Z,91.96
2023-05-22T22:43:39.163Z,92.42
2023-05-22T22:46:05.844Z,92.44
2023-05-22T22:48:32.369Z,92.15
2023-05-22T22:50:58.902Z,91.88
2023-05-22T22:53:25.519Z,92.37
2023-05-22T22:55:59.277Z,92.49
2023-05-22T22:58:25.925Z,92.42
2023-05-22T23:00:52.889Z,92.45
2023-05-22T23:03:19.488Z,92.35
2023-05-22T23:05:46.543Z,92.23
2023-05-22T23:08:13.254Z,91.85
2023-05-22T23:10:39.759Z,91.52
2023-05-22T23:13:06.515Z,91.96
2023-05-22T23:15:33.825Z,91.51
2023-05-22T23:18:00.452Z,91.39
2023-05-22T23:20:26.970Z,90.78
2023-05-22T23:22:53.533Z,91.27
2023-05-22T23:25:20.123Z,91.44
2023-05-22T23:27:46.668Z,91.56
2023-05-22T23:30:13.245Z,91.83
2023-05-22T23:32:39.838Z,90.94
2023-05-22T23:35:06.566Z,91.20
2023-05-22T23:37:33.065Z,91.26
2023-05-22T23:39:59.574Z,91.60
2023-05-22T23:42:26.119Z,91.63
2023-05-22T23:44:52.743Z,91.88
2023-05-22T23:47:19.244Z,91.82
2023-05-22T23:49:45.716Z,91.96
2023-05-22T23:52:13.112Z,91.55
2023-05-22T23:54:39.731Z,92.02
2023-05-22T23:57:06.267Z,92.35
2023-05-22T23:59:32.765Z,92.31
